sensor_id;sensor_type;location;lat;lon;timestamp;pressure;altitude;pressure_sealevel;temperature;humidity
16194;BME280;8204;53.582;10.080;2022-08-21T00:00:26;101320.91;;;18.34;100.00
16194;BME280;8204;53.582;10.080;2022-08-21T00:02:55;101316.38;;;18.29;100.00
16194;BME280;8204;53.582;10.080;2022-08-21T00:05:24;101313.09;;;18.27;100.00
16194;BME280;8204;53.582;10.080;2022-08-21T00:07:51;101305.53;;;18.24;100.00
16194;BME280;8204;53.582;10.080;2022-08-21T00:10:19;101304.91;;;18.22;100.00
16194;BME280;8204;53.582;10.080;2022-08-21T00:12:47;101305.00;;;18.14;100.00
16194;BME280;8204;53.582;10.080;2022-08-21T00:15:16;101299.47;;;18.09;100.00
16194;BME280;8204;53.582;10.080;2022-08-21T00:17:44;101295.16;;;18.08;100.00
16194;BME280;8204;53.582;10.080;2022-08-21T00:20:12;101288.06;;;18.08;100.00
16194;BME280;8204;53.582;10.080;2022-08-21T00:22:40;101283.97;;;18.06;100.00
16194;BME280;8204;53.582;10.080;2022-08-21T00:25:07;101277.78;;;17.99;100.00
16194;BME280;8204;53.582;10.080;2022-08-21T00:27:34;101276.13;;;17.98;100.00
16194;BME280;8204;53.582;10.080;2022-08-21T00:30:01;101273.63;;;17.90;100.00
16194;BME280;8204;53.582;10.080;2022-08-21T00:32:28;101278.06;;;17.83;100.00
16194;BME280;8204;53.582;10.080;2022-08-21T00:34:56;101278.69;;;17.85;100.00
16194;BME280;8204;53.582;10.080;2022-08-21T00:37:23;101278.06;;;17.83;100.00
16194;BME280;8204;53.582;10.080;2022-08-21T00:39:50;101268.66;;;17.80;100.00
16194;BME280;8204;53.582;10.080;2022-08-21T00:42:16;101267.22;;;17.78;100.00
16194;BME280;8204;53.582;10.080;2022-08-21T00:44:44;101254.59;;;17.80;100.00
16194;BME280;8204;53.582;10.080;2022-08-21T00:47:11;101260.28;;;17.77;100.00
16194;BME280;8204;53.582;10.080;2022-08-21T00:49:38;101259.47;;;17.76;100.00
16194;BME280;8204;53.582;10.080;2022-08-21T00:52:09;101259.47;;;17.76;100.00
16194;BME280;8204;53.582;10.080;2022-08-21T00:54:36;101264.31;;;17.73;100.00
16194;BME280;8204;53.582;10.080;2022-08-21T00:57:07;101260.19;;;17.70;100.00
16194;BME280;8204;53.582;10.080;2022-08-21T00:59:37;101251.41;;;17.63;100.00
16194;BME280;8204;53.582;10.080;2022-08-21T01:02:06;101250.13;;;17.59;100.00
16194;BME280;8204;53.582;10.080;2022-08-21T01:04:33;101244.38;;;17.56;100.00
16194;BME280;8204;53.582;10.080;2022-08-21T01:07:01;101246.81;;;17.51;100.00
16194;BME280;8204;53.582;10.080;2022-08-21T01:09:29;101246.81;;;17.51;100.00
16194;BME280;8204;53.582;10.080;2022-08-21T01:11:55;101243.31;;;17.51;100.00
16194;BME280;8204;53.582;10.080;2022-08-21T01:14:23;101241.88;;;17.48;100.00
16194;BME280;8204;53.582;10.080;2022-08-21T01:16:51;101252.03;;;17.45;100.00
16194;BME280;8204;53.582;10.080;2022-08-21T01:19:19;101253.22;;;17.42;100.00
16194;BME280;8204;53.582;10.080;2022-08-21T01:21:48;101256.28;;;17.39;100.00
16194;BME280;8204;53.582;10.080;2022-08-21T01:24:15;101249.53;;;17.37;100.00
16194;BME280;8204;53.582;10.080;2022-08-21T01:26:42;101250.53;;;17.36;100.00
16194;BME280;8204;53.582;10.080;2022-08-21T01:29:15;101256.84;;;17.35;100.00
16194;BME280;8204;53.582;10.080;2022-08-21T01:31:42;101261.06;;;17.29;100.00
16194;BME280;8204;53.582;10.080;2022-08-21T01:34:09;101251.47;;;17.28;100.00
16194;BME280;8204;53.582;10.080;2022-08-21T01:36:36;101251.19;;;17.23;100.00
16194;BME280;8204;53.582;10.080;2022-08-21T01:39:05;101255.84;;;17.21;100.00
16194;BME280;8204;53.582;10.080;2022-08-21T01:41:32;101257.47;;;17.22;100.00
16194;BME280;8204;53.582;10.080;2022-08-21T01:43:58;101252.19;;;17.22;100.00
16194;BME280;8204;53.582;10.080;2022-08-21T01:46:24;101250.53;;;17.21;100.00
16194;BME280;8204;53.582;10.080;2022-08-21T01:48:51;101250.13;;;17.18;100.00
16194;BME280;8204;53.582;10.080;2022-08-21T01:51:17;101255.78;;;17.15;100.00
16194;BME280;8204;53.582;10.080;2022-08-21T01:53:44;101254.69;;;17.09;100.00
16194;BME280;8204;53.582;10.080;2022-08-21T01:56:13;101243.94;;;17.11;100.00
16194;BME280;8204;53.582;10.080;2022-08-21T01:58:41;101245.13;;;17.08;100.00
16194;BME280;8204;53.582;10.080;2022-08-21T02:01:08;101249.16;;;17.04;100.00
16194;BME280;8204;53.582;10.080;2022-08-21T02:03:36;101249.56;;;17.01;100.00
16194;BME280;8204;53.582;10.080;2022-08-21T02:06:03;101246.25;;;16.99;100.00
16194;BME280;8204;53.582;10.080;2022-08-21T02:08:30;101240.06;;;16.92;100.00
16194;BME280;8204;53.582;10.080;2022-08-21T02:10:57;101240.06;;;16.92;100.00
16194;BME280;8204;53.582;10.080;2022-08-21T02:13:24;101235.13;;;16.89;100.00
16194;BME280;8204;53.582;10.080;2022-08-21T02:15:51;101223.94;;;16.87;100.00
16194;BME280;8204;53.582;10.080;2022-08-21T02:18:18;101236.78;;;16.90;100.00
16194;BME280;8204;53.582;10.080;2022-08-21T02:20:47;101238.97;;;16.87;100.00
16194;BME280;8204;53.582;10.080;2022-08-21T02:23:14;101230.88;;;16.88;100.00
16194;BME280;8204;53.582;10.080;2022-08-21T02:25:41;101235.53;;;16.86;100.00
16194;BME280;8204;53.582;10.080;2022-08-21T02:28:11;101228.78;;;16.84;100.00
16194;BME280;8204;53.582;10.080;2022-08-21T02:30:42;101234.06;;;16.84;100.00
16194;BME280;8204;53.582;10.080;2022-08-21T02:33:10;101224.50;;;16.83;100.00
16194;BME280;8204;53.582;10.080;2022-08-21T02:35:37;101222.47;;;16.85;100.00
16194;BME280;8204;53.582;10.080;2022-08-21T02:38:07;101220.00;;;16.83;100.00
16194;BME280;8204;53.582;10.080;2022-08-21T02:40:36;101226.28;;;16.82;100.00
16194;BME280;8204;53.582;10.080;2022-08-21T02:43:04;101217.09;;;16.79;100.00
16194;BME280;8204;53.582;10.080;2022-08-21T02:45:32;101228.25;;;16.74;100.00
16194;BME280;8204;53.582;10.080;2022-08-21T02:48:02;101211.75;;;16.72;100.00
16194;BME280;8204;53.582;10.080;2022-08-21T02:50:32;101210.72;;;16.73;100.00
16194;BME280;8204;53.582;10.080;2022-08-21T02:52:59;101203.63;;;16.74;100.00
16194;BME280;8204;53.582;10.080;2022-08-21T02:55:28;101204.63;;;16.73;100.00
16194;BME280;8204;53.582;10.080;2022-08-21T02:57:56;101201.59;;;16.76;100.00
16194;BME280;8204;53.582;10.080;2022-08-21T03:00:25;101195.47;;;16.75;100.00
16194;BME280;8204;53.582;10.080;2022-08-21T03:02:52;101191.84;;;16.76;100.00
16194;BME280;8204;53.582;10.080;2022-08-21T03:05:23;101185.53;;;16.77;100.00
16194;BME280;8204;53.582;10.080;2022-08-21T03:07:50;101190.63;;;16.79;100.00
16194;BME280;8204;53.582;10.080;2022-08-21T03:10:19;101185.34;;;16.79;100.00
16194;BME280;8204;53.582;10.080;2022-08-21T03:12:46;101189.00;;;16.78;100.00
16194;BME280;8204;53.582;10.080;2022-08-21T03:15:15;101194.28;;;16.78;100.00
16194;BME280;8204;53.582;10.080;2022-08-21T03:17:43;101184.53;;;16.78;100.00
16194;BME280;8204;53.582;10.080;2022-08-21T03:20:10;101190.19;;;16.75;100.00
16194;BME280;8204;53.582;10.080;2022-08-21T03:22:39;101186.09;;;16.73;100.00
16194;BME280;8204;53.582;10.080;2022-08-21T03:25:06;101180.81;;;16.73;100.00
16194;BME280;8204;53.582;10.080;2022-08-21T03:27:34;101190.13;;;16.69;100.00
16194;BME280;8204;53.582;10.080;2022-08-21T03:30:03;101202.91;;;16.65;100.00
16194;BME280;8204;53.582;10.080;2022-08-21T03:32:30;101191.88;;;16.62;100.00
16194;BME280;8204;53.582;10.080;2022-08-21T03:34:57;101186.94;;;16.59;100.00
16194;BME280;8204;53.582;10.080;2022-08-21T03:37:26;101186.13;;;16.58;100.00
16194;BME280;8204;53.582;10.080;2022-08-21T03:39:54;101183.66;;;16.57;100.00
16194;BME280;8204;53.582;10.080;2022-08-21T03:42:21;101175.72;;;16.57;100.00
16194;BME280;8204;53.582;10.080;2022-08-21T03:44:48;101170.44;;;16.57;100.00
16194;BME280;8204;53.582;10.080;2022-08-21T03:47:15;101175.72;;;16.57;100.00
16194;BME280;8204;53.582;10.080;2022-08-21T03:49:41;101179.75;;;16.53;100.00
16194;BME280;8204;53.582;10.080;2022-08-21T03:52:08;101180.94;;;16.50;100.00
16194;BME280;8204;53.582;10.080;2022-08-21T03:54:34;101175.22;;;16.47;100.00
16194;BME280;8204;53.582;10.080;2022-08-21T03:57:02;101170.28;;;16.44;100.00
16194;BME280;8204;53.582;10.080;2022-08-21T03:59:29;101174.75;;;16.43;100.00
16194;BME280;8204;53.582;10.080;2022-08-21T04:01:57;101171.47;;;16.41;100.00
16194;BME280;8204;53.582;10.080;2022-08-21T04:04:28;101173.84;;;16.36;100.00
16194;BME280;8204;53.582;10.080;2022-08-21T04:06:55;101179.50;;;16.33;100.00
16194;BME280;8204;53.582;10.080;2022-08-21T04:09:22;101182.84;;;16.27;100.00
16194;BME280;8204;53.582;10.080;2022-08-21T04:11:49;101177.75;;;16.26;100.00
16194;BME280;8204;53.582;10.080;2022-08-21T04:14:19;101172.47;;;16.26;100.00
16194;BME280;8204;53.582;10.080;2022-08-21T04:16:45;101167.56;;;16.23;100.00
16194;BME280;8204;53.582;10.080;2022-08-21T04:19:12;101167.38;;;16.24;100.00
16194;BME280;8204;53.582;10.080;2022-08-21T04:21:40;101163.09;;;16.23;100.00
16194;BME280;8204;53.582;10.080;2022-08-21T04:24:07;101167.91;;;16.20;100.00
16194;BME280;8204;53.582;10.080;2022-08-21T04:26:35;101175.84;;;16.20;100.00
16194;BME280;8204;53.582;10.080;2022-08-21T04:29:02;101174.22;;;16.19;100.00
16194;BME280;8204;53.582;10.080;2022-08-21T04:31:30;101167.47;;;16.16;100.00
16194;BME280;8204;53.582;10.080;2022-08-21T04:33:56;101159.72;;;16.15;100.00
16194;BME280;8204;53.582;10.080;2022-08-21T04:36:23;101159.72;;;16.15;100.00
16194;BME280;8204;53.582;10.080;2022-08-21T04:38:49;101151.59;;;16.16;100.00
16194;BME280;8204;53.582;10.080;2022-08-21T04:41:16;101153.91;;;16.19;100.00
16194;BME280;8204;53.582;10.080;2022-08-21T04:43:42;101146.78;;;16.20;100.00
16194;BME280;8204;53.582;10.080;2022-08-21T04:46:09;101149.66;;;16.25;100.00
16194;BME280;8204;53.582;10.080;2022-08-21T04:48:37;101146.69;;;16.28;100.00
16194;BME280;8204;53.582;10.080;2022-08-21T04:51:07;101134.72;;;16.32;100.00
16194;BME280;8204;53.582;10.080;2022-08-21T04:53:37;101137.63;;;16.37;100.00
16194;BME280;8204;53.582;10.080;2022-08-21T04:56:06;101132.63;;;16.42;100.00
16194;BME280;8204;53.582;10.080;2022-08-21T04:58:35;101136.72;;;16.44;100.00
16194;BME280;8204;53.582;10.080;2022-08-21T05:01:04;101133.53;;;16.49;100.00
16194;BME280;8204;53.582;10.080;2022-08-21T05:03:34;101135.78;;;16.52;100.00
16194;BME280;8204;53.582;10.080;2022-08-21T05:06:05;101133.78;;;16.54;100.00
16194;BME280;8204;53.582;10.080;2022-08-21T05:08:33;101124.44;;;16.58;100.00
16194;BME280;8204;53.582;10.080;2022-08-21T05:11:00;101130.19;;;16.61;100.00
16194;BME280;8204;53.582;10.080;2022-08-21T05:13:27;101138.38;;;16.66;100.00
16194;BME280;8204;53.582;10.080;2022-08-21T05:15:53;101135.16;;;16.71;100.00
16194;BME280;8204;53.582;10.080;2022-08-21T05:18:21;101128.50;;;16.75;100.00
16194;BME280;8204;53.582;10.080;2022-08-21T05:20:47;101139.53;;;16.78;100.00
16194;BME280;8204;53.582;10.080;2022-08-21T05:23:15;101135.50;;;16.82;100.00
16194;BME280;8204;53.582;10.080;2022-08-21T05:25:42;101135.94;;;16.85;100.00
16194;BME280;8204;53.582;10.080;2022-08-21T05:28:09;101140.88;;;16.88;100.00
16194;BME280;8204;53.582;10.080;2022-08-21T05:30:36;101149.22;;;16.92;100.00
16194;BME280;8204;53.582;10.080;2022-08-21T05:33:05;101136.44;;;16.95;100.00
16194;BME280;8204;53.582;10.080;2022-08-21T05:35:32;101156.22;;;16.99;100.00
16194;BME280;8204;53.582;10.080;2022-08-21T05:37:59;101155.84;;;17.02;100.00
16194;BME280;8204;53.582;10.080;2022-08-21T05:40:27;101149.78;;;17.08;100.00
16194;BME280;8204;53.582;10.080;2022-08-21T05:42:55;101143.75;;;17.14;100.00
16194;BME280;8204;53.582;10.080;2022-08-21T05:45:22;101150.28;;;17.18;100.00
16194;BME280;8204;53.582;10.080;2022-08-21T05:47:49;101157.47;;;17.24;100.00
16194;BME280;8204;53.582;10.080;2022-08-21T05:50:15;101154.28;;;17.29;100.00
16194;BME280;8204;53.582;10.080;2022-08-21T05:52:42;101150.06;;;17.34;100.00
16194;BME280;8204;53.582;10.080;2022-08-21T05:55:08;101150.47;;;17.38;100.00
16194;BME280;8204;53.582;10.080;2022-08-21T05:57:36;101149.91;;;17.42;100.00
16194;BME280;8204;53.582;10.080;2022-08-21T06:00:07;101154.44;;;17.48;100.00
16194;BME280;8204;53.582;10.080;2022-08-21T06:02:35;101160.00;;;17.53;100.00
16194;BME280;8204;53.582;10.080;2022-08-21T06:05:02;101176.50;;;17.55;100.00
16194;BME280;8204;53.582;10.080;2022-08-21T06:07:28;101174.28;;;17.58;100.00
16194;BME280;8204;53.582;10.080;2022-08-21T06:09:55;101175.56;;;17.62;100.00
16194;BME280;8204;53.582;10.080;2022-08-21T06:12:21;101178.00;;;17.64;100.00
16194;BME280;8204;53.582;10.080;2022-08-21T06:14:49;101182.09;;;17.66;100.00
16194;BME280;8204;53.582;10.080;2022-08-21T06:17:18;101180.06;;;17.68;100.00
16194;BME280;8204;53.582;10.080;2022-08-21T06:19:45;101189.06;;;17.74;100.00
16194;BME280;8204;53.582;10.080;2022-08-21T06:22:11;101183.38;;;17.77;100.00
16194;BME280;8204;53.582;10.080;2022-08-21T06:24:37;101190.97;;;17.80;100.00
16194;BME280;8204;53.582;10.080;2022-08-21T06:27:05;101191.19;;;17.85;100.00
16194;BME280;8204;53.582;10.080;2022-08-21T06:29:33;101192.63;;;17.87;100.00
16194;BME280;8204;53.582;10.080;2022-08-21T06:32:02;101201.03;;;17.91;100.00
16194;BME280;8204;53.582;10.080;2022-08-21T06:34:28;101190.66;;;17.96;100.00
16194;BME280;8204;53.582;10.080;2022-08-21T06:36:55;101205.34;;;17.98;100.00
16194;BME280;8204;53.582;10.080;2022-08-21T06:39:21;101210.44;;;18.00;100.00
16194;BME280;8204;53.582;10.080;2022-08-21T06:41:48;101224.75;;;17.99;100.00
16194;BME280;8204;53.582;10.080;2022-08-21T06:44:16;101221.69;;;18.02;100.00
16194;BME280;8204;53.582;10.080;2022-08-21T06:46:42;101212.53;;;18.04;100.00
16194;BME280;8204;53.582;10.080;2022-08-21T06:49:10;101218.25;;;18.08;100.00
16194;BME280;8204;53.582;10.080;2022-08-21T06:51:38;101217.03;;;18.10;100.00
16194;BME280;8204;53.582;10.080;2022-08-21T06:54:04;101231.56;;;18.14;100.00
16194;BME280;8204;53.582;10.080;2022-08-21T06:56:31;101239.69;;;18.13;100.00
16194;BME280;8204;53.582;10.080;2022-08-21T06:58:58;101241.34;;;18.14;100.00
16194;BME280;8204;53.582;10.080;2022-08-21T07:01:26;101251.78;;;18.15;100.00
16194;BME280;8204;53.582;10.080;2022-08-21T07:03:52;101247.91;;;18.18;100.00
16194;BME280;8204;53.582;10.080;2022-08-21T07:06:20;101239.81;;;18.26;100.00
16194;BME280;8204;53.582;10.080;2022-08-21T07:08:47;101249.25;;;18.28;100.00
16194;BME280;8204;53.582;10.080;2022-08-21T07:11:17;101250.09;;;18.35;100.00
16194;BME280;8204;53.582;10.080;2022-08-21T07:13:43;101262.38;;;18.42;100.00
16194;BME280;8204;53.582;10.080;2022-08-21T07:16:10;101254.63;;;18.47;100.00
16194;BME280;8204;53.582;10.080;2022-08-21T07:18:37;101266.09;;;18.54;100.00
16194;BME280;8204;53.582;10.080;2022-08-21T07:21:05;101276.50;;;18.56;100.00
16194;BME280;8204;53.582;10.080;2022-08-21T07:23:38;101276.56;;;18.62;100.00
16194;BME280;8204;53.582;10.080;2022-08-21T07:26:06;101282.50;;;18.64;100.00
16194;BME280;8204;53.582;10.080;2022-08-21T07:28:33;101272.47;;;18.66;100.00
16194;BME280;8204;53.582;10.080;2022-08-21T07:31:00;101272.47;;;18.66;100.00
16194;BME280;8204;53.582;10.080;2022-08-21T07:33:29;101250.06;;;18.75;100.00
16194;BME280;8204;53.582;10.080;2022-08-21T07:35:56;101268.66;;;18.82;100.00
16194;BME280;8204;53.582;10.080;2022-08-21T07:38:23;101263.78;;;18.85;100.00
16194;BME280;8204;53.582;10.080;2022-08-21T07:40:53;101259.72;;;18.89;100.00
16194;BME280;8204;53.582;10.080;2022-08-21T07:43:20;101254.19;;;18.91;100.00
16194;BME280;8204;53.582;10.080;2022-08-21T07:45:47;101261.16;;;18.98;100.00
16194;BME280;8204;53.582;10.080;2022-08-21T07:48:15;101253.44;;;19.03;100.00
16194;BME280;8204;53.582;10.080;2022-08-21T07:50:42;101247.94;;;19.11;100.00
16194;BME280;8204;53.582;10.080;2022-08-21T07:53:09;101237.97;;;19.19;100.00
16194;BME280;8204;53.582;10.080;2022-08-21T07:55:35;101247.78;;;19.32;100.00
16194;BME280;8204;53.582;10.080;2022-08-21T07:58:03;101246.75;;;19.33;100.00
16194;BME280;8204;53.582;10.080;2022-08-21T08:00:30;101248.22;;;19.42;100.00
16194;BME280;8204;53.582;10.080;2022-08-21T08:02:56;101246.38;;;19.49;100.00
16194;BME280;8204;53.582;10.080;2022-08-21T08:05:25;101254.97;;;19.57;100.00
16194;BME280;8204;53.582;10.080;2022-08-21T08:07:53;101260.28;;;19.64;100.00
16194;BME280;8204;53.582;10.080;2022-08-21T08:10:20;101256.81;;;19.70;100.00
16194;BME280;8204;53.582;10.080;2022-08-21T08:12:47;101258.03;;;19.74;100.00
16194;BME280;8204;53.582;10.080;2022-08-21T08:15:19;101270.72;;;19.78;100.00
16194;BME280;8204;53.582;10.080;2022-08-21T08:17:46;101276.88;;;19.85;100.00
16194;BME280;8204;53.582;10.080;2022-08-21T08:20:14;101265.19;;;19.86;100.00
16194;BME280;8204;53.582;10.080;2022-08-21T08:22:42;101259.69;;;19.94;100.00
16194;BME280;8204;53.582;10.080;2022-08-21T08:25:10;101261.94;;;20.03;100.00
16194;BME280;8204;53.582;10.080;2022-08-21T08:27:37;101256.63;;;20.10;100.00
16194;BME280;8204;53.582;10.080;2022-08-21T08:30:06;101271.13;;;20.20;100.00
16194;BME280;8204;53.582;10.080;2022-08-21T08:32:34;101273.53;;;20.28;100.00
16194;BME280;8204;53.582;10.080;2022-08-21T08:35:01;101263.13;;;20.33;100.00
16194;BME280;8204;53.582;10.080;2022-08-21T08:37:28;101270.25;;;20.39;100.00
16194;BME280;8204;53.582;10.080;2022-08-21T08:39:54;101266.53;;;20.47;100.00
16194;BME280;8204;53.582;10.080;2022-08-21T08:42:25;101267.97;;;20.55;100.00
16194;BME280;8204;53.582;10.080;2022-08-21T08:44:57;101267.34;;;20.60;100.00
16194;BME280;8204;53.582;10.080;2022-08-21T08:47:26;101253.75;;;20.68;100.00
16194;BME280;8204;53.582;10.080;2022-08-21T08:50:02;101241.88;;;20.77;100.00
16194;BME280;8204;53.582;10.080;2022-08-21T08:52:31;101249.19;;;20.88;100.00
16194;BME280;8204;53.582;10.080;2022-08-21T08:55:02;101253.66;;;20.94;100.00
16194;BME280;8204;53.582;10.080;2022-08-21T08:57:30;101252.22;;;20.98;100.00
16194;BME280;8204;53.582;10.080;2022-08-21T08:59:59;101252.63;;;21.01;100.00
16194;BME280;8204;53.582;10.080;2022-08-21T09:02:26;101255.25;;;21.08;100.00
16194;BME280;8204;53.582;10.080;2022-08-21T09:04:55;101247.00;;;21.09;100.00
16194;BME280;8204;53.582;10.080;2022-08-21T09:07:31;101243.91;;;21.19;100.00
16194;BME280;8204;53.582;10.080;2022-08-21T09:10:11;101248.56;;;21.23;100.00
16194;BME280;8204;53.582;10.080;2022-08-21T09:12:47;101230.91;;;21.28;100.00
16194;BME280;8204;53.582;10.080;2022-08-21T09:15:24;101228.78;;;21.37;100.00
16194;BME280;8204;53.582;10.080;2022-08-21T09:18:02;101240.69;;;21.41;100.00
16194;BME280;8204;53.582;10.080;2022-08-21T09:20:37;101241.44;;;21.48;100.00
16194;BME280;8204;53.582;10.080;2022-08-21T09:23:14;101234.44;;;21.53;100.00
16194;BME280;8204;53.582;10.080;2022-08-21T09:25:53;101236.84;;;21.61;100.00
16194;BME280;8204;53.582;10.080;2022-08-21T09:28:21;101244.75;;;21.74;100.00
16194;BME280;8204;53.582;10.080;2022-08-21T09:30:49;101248.16;;;21.81;100.00
16194;BME280;8204;53.582;10.080;2022-08-21T09:33:17;101240.69;;;21.90;100.00
16194;BME280;8204;53.582;10.080;2022-08-21T09:35:55;101238.41;;;21.93;100.00
16194;BME280;8204;53.582;10.080;2022-08-21T09:38:28;101236.94;;;21.97;100.00
16194;BME280;8204;53.582;10.080;2022-08-21T09:40:59;101245.75;;;21.98;100.00
16194;BME280;8204;53.582;10.080;2022-08-21T09:43:26;101237.25;;;22.07;100.00
16194;BME280;8204;53.582;10.080;2022-08-21T09:46:06;101244.97;;;22.15;100.00
16194;BME280;8204;53.582;10.080;2022-08-21T09:48:41;101253.34;;;22.18;100.00
16194;BME280;8204;53.582;10.080;2022-08-21T09:51:13;101249.97;;;22.29;100.00
16194;BME280;8204;53.582;10.080;2022-08-21T09:53:45;101245.38;;;22.36;100.00
16194;BME280;8204;53.582;10.080;2022-08-21T09:56:19;101254.94;;;22.44;100.00
16194;BME280;8204;53.582;10.080;2022-08-21T09:59:13;101242.94;;;22.53;100.00
16194;BME280;8204;53.582;10.080;2022-08-21T10:01:46;101250.66;;;22.61;100.00
16194;BME280;8204;53.582;10.080;2022-08-21T10:04:13;101265.41;;;22.63;100.00
16194;BME280;8204;53.582;10.080;2022-08-21T10:06:41;101260.19;;;22.68;100.00
16194;BME280;8204;53.582;10.080;2022-08-21T10:09:10;101241.44;;;22.75;100.00
16194;BME280;8204;53.582;10.080;2022-08-21T10:11:37;101243.78;;;22.82;100.00
16194;BME280;8204;53.582;10.080;2022-08-21T10:14:13;101257.59;;;22.79;100.00
16194;BME280;8204;53.582;10.080;2022-08-21T10:16:52;101247.34;;;22.77;100.00
16194;BME280;8204;53.582;10.080;2022-08-21T10:19:34;101252.25;;;22.79;100.00
16194;BME280;8204;53.582;10.080;2022-08-21T10:22:15;101258.63;;;22.78;100.00
16194;BME280;8204;53.582;10.080;2022-08-21T10:24:51;101239.69;;;22.80;100.00
16194;BME280;8204;53.582;10.080;2022-08-21T10:27:23;101244.84;;;22.81;100.00
16194;BME280;8204;53.582;10.080;2022-08-21T10:29:57;101252.50;;;22.89;100.00
16194;BME280;8204;53.582;10.080;2022-08-21T10:32:43;101248.38;;;22.93;100.00
16194;BME280;8204;53.582;10.080;2022-08-21T10:35:14;101240.91;;;22.95;100.00
16194;BME280;8204;53.582;10.080;2022-08-21T10:37:56;101250.81;;;22.95;100.00
16194;BME280;8204;53.582;10.080;2022-08-21T10:40:30;101248.50;;;22.98;100.00
16194;BME280;8204;53.582;10.080;2022-08-21T10:43:08;101257.66;;;22.91;100.00
16194;BME280;8204;53.582;10.080;2022-08-21T10:45:50;101251.41;;;22.97;100.00
16194;BME280;8204;53.582;10.080;2022-08-21T10:48:25;101246.63;;;22.99;100.00
16194;BME280;8204;53.582;10.080;2022-08-21T10:50:59;101235.88;;;23.05;100.00
16194;BME280;8204;53.582;10.080;2022-08-21T10:53:47;101234.75;;;23.13;100.00
16194;BME280;8204;53.582;10.080;2022-08-21T10:56:19;101260.94;;;23.22;100.00
16194;BME280;8204;53.582;10.080;2022-08-21T10:59:02;101248.59;;;23.21;100.00
16194;BME280;8204;53.582;10.080;2022-08-21T11:01:33;101249.47;;;23.33;100.00
16194;BME280;8204;53.582;10.080;2022-08-21T11:04:11;101259.34;;;23.33;100.00
16194;BME280;8204;53.582;10.080;2022-08-21T11:06:42;101257.16;;;23.41;100.00
16194;BME280;8204;53.582;10.080;2022-08-21T11:09:13;101248.34;;;23.52;100.00
16194;BME280;8204;53.582;10.080;2022-08-21T11:11:44;101247.53;;;23.63;100.00
16194;BME280;8204;53.582;10.080;2022-08-21T11:14:20;101254.34;;;23.77;100.00
16194;BME280;8204;53.582;10.080;2022-08-21T11:16:53;101267.75;;;23.88;100.00
16194;BME280;8204;53.582;10.080;2022-08-21T11:19:29;101259.56;;;23.95;100.00
16194;BME280;8204;53.582;10.080;2022-08-21T11:22:04;101260.53;;;24.00;100.00
16194;BME280;8204;53.582;10.080;2022-08-21T11:24:40;101278.94;;;24.08;100.00
16194;BME280;8204;53.582;10.080;2022-08-21T11:27:17;101273.44;;;24.15;100.00
16194;BME280;8204;53.582;10.080;2022-08-21T11:29:48;101280.31;;;24.22;100.00
16194;BME280;8204;53.582;10.080;2022-08-21T11:32:35;101279.25;;;24.34;100.00
16194;BME280;8204;53.582;10.080;2022-08-21T11:35:12;101270.41;;;24.45;100.00
16194;BME280;8204;53.582;10.080;2022-08-21T11:37:51;101270.63;;;24.55;100.00
16194;BME280;8204;53.582;10.080;2022-08-21T11:40:35;101277.81;;;24.66;100.00
16194;BME280;8204;53.582;10.080;2022-08-21T11:43:17;101275.34;;;24.76;100.00
16194;BME280;8204;53.582;10.080;2022-08-21T11:45:51;101294.91;;;24.88;100.00
16194;BME280;8204;53.582;10.080;2022-08-21T11:48:30;101290.94;;;24.91;100.00
16194;BME280;8204;53.582;10.080;2022-08-21T11:50:57;101292.41;;;24.98;100.00
16194;BME280;8204;53.582;10.080;2022-08-21T11:53:32;101300.56;;;25.03;98.78
16194;BME280;8204;53.582;10.080;2022-08-21T11:56:07;101300.56;;;25.03;99.63
16194;BME280;8204;53.582;10.080;2022-08-21T11:58:39;101288.66;;;25.10;99.51
16194;BME280;8204;53.582;10.080;2022-08-21T12:01:09;101286.66;;;25.17;96.25
16194;BME280;8204;53.582;10.080;2022-08-21T12:03:40;101286.03;;;25.27;97.53
16194;BME280;8204;53.582;10.080;2022-08-21T12:06:10;101282.84;;;25.30;97.31
16194;BME280;8204;53.582;10.080;2022-08-21T12:08:38;101275.47;;;25.37;98.70
16194;BME280;8204;53.582;10.080;2022-08-21T12:11:08;101278.78;;;25.27;95.52
16194;BME280;8204;53.582;10.080;2022-08-21T12:13:38;101281.00;;;25.30;96.61
16194;BME280;8204;53.582;10.080;2022-08-21T12:16:08;101279.31;;;25.41;96.38
16194;BME280;8204;53.582;10.080;2022-08-21T12:18:35;101274.34;;;25.49;96.42
16194;BME280;8204;53.582;10.080;2022-08-21T12:21:20;101278.09;;;25.65;95.02
16194;BME280;8204;53.582;10.080;2022-08-21T12:23:49;101286.91;;;25.77;94.66
16194;BME280;8204;53.582;10.080;2022-08-21T12:26:28;101274.53;;;25.92;93.72
16194;BME280;8204;53.582;10.080;2022-08-21T12:29:16;101273.00;;;26.12;92.31
16194;BME280;8204;53.582;10.080;2022-08-21T12:31:49;101287.19;;;26.29;91.06
16194;BME280;8204;53.582;10.080;2022-08-21T12:34:17;101276.97;;;26.43;92.08
16194;BME280;8204;53.582;10.080;2022-08-21T12:36:53;101269.31;;;26.56;90.26
16194;BME280;8204;53.582;10.080;2022-08-21T12:39:24;101281.81;;;26.67;88.14
16194;BME280;8204;53.582;10.080;2022-08-21T12:41:57;101275.63;;;26.88;88.87
16194;BME280;8204;53.582;10.080;2022-08-21T12:44:31;101284.41;;;27.00;86.02
16194;BME280;8204;53.582;10.080;2022-08-21T12:47:03;101277.88;;;26.96;88.46
16194;BME280;8204;53.582;10.080;2022-08-21T12:49:35;101274.78;;;27.04;88.76
16194;BME280;8204;53.582;10.080;2022-08-21T12:52:11;101278.03;;;27.06;85.78